createdAt,value
2017-08-29T00:00:45.329Z,13.83
2017-08-29T00:03:12.833Z,12.43
2017-08-29T00:05:40.310Z,12.60
2017-08-29T00:08:07.788Z,12.60
2017-08-29T00:10:35.282Z,12.27
2017-08-29T00:13:02.789Z,12.70
2017-08-29T00:15:30.274Z,12.77
2017-08-29T00:17:57.756Z,12.85
2017-08-29T00:20:25.259Z,12.57
2017-08-29T00:22:52.747Z,12.60
2017-08-29T00:25:20.260Z,12.25
2017-08-29T00:27:47.733Z,12.87
2017-08-29T00:30:15.226Z,12.80
2017-08-29T00:32:42.710Z,12.30
2017-08-29T00:35:10.210Z,12.70
2017-08-29T00:37:37.692Z,13.02
2017-08-29T00:40:05.581Z,13.07
2017-08-29T00:42:33.084Z,12.33
2017-08-29T00:45:00.574Z,12.67
2017-08-29T00:47:28.056Z,12.77
2017-08-29T00:49:55.521Z,13.00
2017-08-29T00:52:22.997Z,11.73
2017-08-29T00:54:50.475Z,12.37
2017-08-29T00:57:18.325Z,13.50
2017-08-29T00:59:45.781Z,13.37
2017-08-29T01:02:13.237Z,12.50
2017-08-29T01:04:40.739Z,12.47
2017-08-29T01:07:08.625Z,13.47
2017-08-29T01:09:36.138Z,13.37
2017-08-29T01:12:04.222Z,13.10
2017-08-29T01:14:31.712Z,13.30
2017-08-29T01:16:59.187Z,13.00
2017-08-29T01:19:26.677Z,13.70
2017-08-29T01:21:55.190Z,14.48
2017-08-29T01:24:22.676Z,13.30
2017-08-29T01:26:50.149Z,12.87
2017-08-29T01:29:17.648Z,13.40
2017-08-29T01:31:45.121Z,12.90
2017-08-29T01:34:12.609Z,12.60
2017-08-29T01:36:40.110Z,13.27
2017-08-29T01:39:07.595Z,12.90
2017-08-29T01:41:35.068Z,12.03
2017-08-29T01:44:02.529Z,12.47
2017-08-29T01:46:30.039Z,11.85
2017-08-29T01:48:57.541Z,12.43
2017-08-29T01:51:25.007Z,13.53
2017-08-29T01:53:52.496Z,13.07
2017-08-29T01:56:19.988Z,13.25
2017-08-29T01:58:47.468Z,13.17
2017-08-29T02:01:14.934Z,12.60
2017-08-29T02:03:42.433Z,13.27
2017-08-29T02:06:09.920Z,13.18
2017-08-29T02:08:37.411Z,12.77
2017-08-29T02:11:05.444Z,13.30
2017-08-29T02:13:32.910Z,13.23
2017-08-29T02:16:00.398Z,13.87
2017-08-29T02:18:27.866Z,13.90
2017-08-29T02:20:55.384Z,12.97
2017-08-29T02:23:23.675Z,13.82
2017-08-29T02:25:51.329Z,13.43
2017-08-29T02:28:18.808Z,12.45
2017-08-29T02:30:46.319Z,12.57
2017-08-29T02:33:13.815Z,13.65
2017-08-29T02:35:41.756Z,13.30
2017-08-29T02:38:09.252Z,13.35
2017-08-29T02:40:36.713Z,13.90
2017-08-29T02:43:04.195Z,12.93
2017-08-29T02:45:31.689Z,12.90
2017-08-29T02:47:59.176Z,13.33
2017-08-29T02:50:26.678Z,13.77
2017-08-29T02:52:54.253Z,13.00
2017-08-29T02:55:21.745Z,13.25
2017-08-29T02:57:49.241Z,13.07
2017-08-29T03:00:16.731Z,13.07
2017-08-29T03:02:44.224Z,13.53
2017-08-29T03:05:11.707Z,12.98
2017-08-29T03:07:39.207Z,12.73
2017-08-29T03:10:06.690Z,13.07
2017-08-29T03:12:34.169Z,13.10
2017-08-29T03:15:01.690Z,13.40
2017-08-29T03:17:29.175Z,12.97
2017-08-29T03:19:56.682Z,13.03
2017-08-29T03:22:24.168Z,13.20
2017-08-29T03:24:51.664Z,12.87
2017-08-29T03:27:19.129Z,13.73
2017-08-29T03:29:46.653Z,12.47
2017-08-29T03:32:14.110Z,13.50
2017-08-29T03:34:41.576Z,13.25
2017-08-29T03:37:09.072Z,13.20
2017-08-29T03:39:36.558Z,13.23
2017-08-29T03:42:05.009Z,13.32
2017-08-29T03:44:32.504Z,12.73
2017-08-29T03:47:00.076Z,13.50
2017-08-29T03:49:27.549Z,13.30
2017-08-29T03:51:55.061Z,13.70
2017-08-29T03:54:22.538Z,12.93
2017-08-29T03:56:50.025Z,13.00
2017-08-29T03:59:17.504Z,13.30
2017-08-29T04:01:44.971Z,13.30
2017-08-29T04:04:12.463Z,12.80
2017-08-29T04:06:39.940Z,12.53
2017-08-29T04:09:07.435Z,11.93
2017-08-29T04:11:34.938Z,13.47
2017-08-29T04:14:02.455Z,13.17
2017-08-29T04:16:29.905Z,12.73
2017-08-29T04:18:57.431Z,12.63
2017-08-29T04:21:24.920Z,13.40
2017-08-29T04:23:52.427Z,14.47
2017-08-29T04:26:19.923Z,12.63
2017-08-29T04:28:47.398Z,12.60
2017-08-29T04:31:14.885Z,12.03
2017-08-29T04:33:42.341Z,12.50
2017-08-29T04:36:09.835Z,13.07
2017-08-29T04:38:37.302Z,12.80
2017-08-29T04:41:04.810Z,16.20
2017-08-29T04:43:32.285Z,14.17
2017-08-29T04:45:59.777Z,12.77
2017-08-29T04:48:27.259Z,13.03
2017-08-29T04:50:54.750Z,13.30
2017-08-29T04:53:23.143Z,13.30
2017-08-29T04:55:50.620Z,13.70
2017-08-29T04:58:18.128Z,14.20
2017-08-29T05:00:45.589Z,13.90
2017-08-29T05:03:13.098Z,13.93
2017-08-29T05:05:40.575Z,15.53
2017-08-29T05:08:08.177Z,13.02
2017-08-29T05:10:35.646Z,13.90
2017-08-29T05:13:03.145Z,14.40
2017-08-29T05:15:30.682Z,18.93
2017-08-29T05:17:58.150Z,15.03
2017-08-29T05:20:25.661Z,13.77
2017-08-29T05:22:53.159Z,14.00
2017-08-29T05:25:20.670Z,13.53
2017-08-29T05:27:48.702Z,13.20
2017-08-29T05:30:17.384Z,13.02
2017-08-29T05:32:45.116Z,14.93
2017-08-29T05:35:12.750Z,15.32
2017-08-29T05:37:40.267Z,13.80
2017-08-29T05:40:07.786Z,14.37
2017-08-29T05:42:35.298Z,14.80
2017-08-29T05:45:02.889Z,13.67
2017-08-29T05:47:30.520Z,14.20
2017-08-29T05:49:58.010Z,15.00
2017-08-29T05:52:25.520Z,13.97
2017-08-29T05:54:53.038Z,13.60
2017-08-29T05:57:20.544Z,13.38
2017-08-29T05:59:48.012Z,13.70
2017-08-29T06:02:15.501Z,13.13
2017-08-29T06:04:43.007Z,20.83
2017-08-29T06:07:10.626Z,13.98
2017-08-29T06:09:38.128Z,15.37
2017-08-29T06:12:06.145Z,14.10
2017-08-29T06:14:33.686Z,14.13
2017-08-29T06:17:01.294Z,14.67
2017-08-29T06:19:28.838Z,14.27
2017-08-29T06:21:56.322Z,16.17
2017-08-29T06:24:23.843Z,15.80
2017-08-29T06:26:51.320Z,15.80
2017-08-29T06:29:18.843Z,15.90
2017-08-29T06:31:46.376Z,15.30
2017-08-29T06:34:13.837Z,15.15
2017-08-29T06:36:41.342Z,16.17
2017-08-29T06:39:08.831Z,14.70
2017-08-29T06:41:36.339Z,15.53
2017-08-29T06:44:03.890Z,15.10
2017-08-29T06:46:31.425Z,17.40
2017-08-29T06:48:58.920Z,18.97
2017-08-29T06:51:26.405Z,20.10
2017-08-29T06:53:54.180Z,16.93
2017-08-29T06:56:21.658Z,18.40
2017-08-29T06:58:49.145Z,18.07
2017-08-29T07:01:16.615Z,17.00
2017-08-29T07:03:44.130Z,16.57
2017-08-29T07:06:11.595Z,15.40
2017-08-29T07:08:39.085Z,16.27
2017-08-29T07:11:06.563Z,15.37
2017-08-29T07:13:34.064Z,16.20
2017-08-29T07:16:01.560Z,16.83
2017-08-29T07:18:29.075Z,18.10
2017-08-29T07:20:56.565Z,15.60
2017-08-29T07:23:24.066Z,14.97
2017-08-29T07:25:51.585Z,15.80
2017-08-29T07:28:19.079Z,15.50
2017-08-29T07:30:46.573Z,15.13
2017-08-29T07:33:14.042Z,15.43
2017-08-29T07:35:41.537Z,15.83
2017-08-29T07:38:09.030Z,14.30
2017-08-29T07:40:36.538Z,16.30
2017-08-29T07:43:04.859Z,15.40
2017-08-29T07:45:32.367Z,15.63
2017-08-29T07:47:59.914Z,16.43
2017-08-29T07:50:27.420Z,16.70
2017-08-29T07:52:54.922Z,17.02
2017-08-29T07:55:22.398Z,17.45
2017-08-29T07:57:49.886Z,13.80
2017-08-29T08:00:17.347Z,13.10
2017-08-29T08:02:44.838Z,14.00
2017-08-29T08:05:12.322Z,13.03
2017-08-29T08:07:39.839Z,14.20
2017-08-29T08:10:07.309Z,12.67
2017-08-29T08:12:34.799Z,13.30
2017-08-29T08:15:02.278Z,12.83
2017-08-29T08:17:29.809Z,13.40
2017-08-29T08:19:57.362Z,12.50
2017-08-29T08:22:24.850Z,14.10
2017-08-29T08:24:52.349Z,13.10
2017-08-29T08:27:19.853Z,11.50
2017-08-29T08:29:47.367Z,12.00
2017-08-29T08:32:14.858Z,12.33
2017-08-29T08:34:42.357Z,11.63
2017-08-29T08:37:09.827Z,12.17
2017-08-29T08:39:37.439Z,12.60
2017-08-29T08:42:10.038Z,12.29
2017-08-29T08:44:37.547Z,10.20
2017-08-29T08:47:05.033Z,10.20
2017-08-29T08:49:32.505Z,11.50
2017-08-29T08:52:00.072Z,11.60
2017-08-29T08:54:27.600Z,12.23
2017-08-29T08:56:55.099Z,11.87
2017-08-29T08:59:22.581Z,10.93
2017-08-29T09:01:50.175Z,10.80
2017-08-29T09:04:17.633Z,11.50
2017-08-29T09:06:45.135Z,12.40
2017-08-29T09:09:12.656Z,11.73
2017-08-29T09:11:40.126Z,11.10
2017-08-29T09:14:07.641Z,10.37
2017-08-29T09:16:35.130Z,11.17
2017-08-29T09:19:02.660Z,11.00
2017-08-29T09:21:30.189Z,11.23
2017-08-29T09:23:57.694Z,10.88
2017-08-29T09:26:25.162Z,10.90
2017-08-29T09:28:52.763Z,10.80
2017-08-29T09:31:20.624Z,10.85
2017-08-29T09:33:48.107Z,10.70
2017-08-29T09:36:15.594Z,10.82
2017-08-29T09:38:43.067Z,10.60
2017-08-29T09:41:10.565Z,10.53
2017-08-29T09:43:38.028Z,11.27
2017-08-29T09:46:05.525Z,10.50
2017-08-29T09:48:33.173Z,9.80
2017-08-29T09:51:00.661Z,10.67
2017-08-29T09:53:28.169Z,10.70
2017-08-29T09:55:55.829Z,10.33
2017-08-29T09:58:23.340Z,10.23
2017-08-29T10:00:51.766Z,10.27
2017-08-29T10:03:19.293Z,10.45
2017-08-29T10:05:46.835Z,11.43
2017-08-29T10:08:14.356Z,11.77
2017-08-29T10:10:41.822Z,10.53
2017-08-29T10:13:09.361Z,10.45
2017-08-29T10:15:36.886Z,10.90
2017-08-29T10:18:04.734Z,10.90
2017-08-29T10:20:32.406Z,10.37
2017-08-29T10:22:59.921Z,10.67
2017-08-29T10:25:27.386Z,9.73
2017-08-29T10:27:54.897Z,11.23
2017-08-29T10:30:22.474Z,11.60
2017-08-29T10:32:50.021Z,11.63
2017-08-29T10:35:17.502Z,10.50
2017-08-29T10:37:45.050Z,10.60
2017-08-29T10:40:12.547Z,11.13
2017-08-29T10:42:40.045Z,10.20
2017-08-29T10:45:07.557Z,11.63
2017-08-29T10:47:35.033Z,10.50
2017-08-29T10:50:02.540Z,11.07
2017-08-29T10:52:30.047Z,10.90
2017-08-29T10:54:57.528Z,11.30
2017-08-29T10:57:24.999Z,10.30
2017-08-29T10:59:52.506Z,9.60
2017-08-29T11:02:20.012Z,8.93
2017-08-29T11:04:47.523Z,11.33
2017-08-29T11:07:15.006Z,9.98
2017-08-29T11:09:42.492Z,9.80
2017-08-29T11:12:09.990Z,11.13
2017-08-29T11:14:37.529Z,10.53
2017-08-29T11:17:05.529Z,9.90
2017-08-29T11:19:33.064Z,9.30
2017-08-29T11:22:00.557Z,10.27
2017-08-29T11:24:28.068Z,9.80
2017-08-29T11:26:55.577Z,10.57
2017-08-29T11:29:23.080Z,9.80
2017-08-29T11:31:50.569Z,9.00
2017-08-29T11:34:18.059Z,8.73
2017-08-29T11:36:45.646Z,9.60
2017-08-29T11:39:13.095Z,9.10
2017-08-29T11:41:40.571Z,9.10
2017-08-29T11:44:08.716Z,10.00
2017-08-29T11:46:36.720Z,9.93
2017-08-29T11:49:04.219Z,9.00
2017-08-29T11:51:31.761Z,9.60
2017-08-29T11:53:59.268Z,10.37
2017-08-29T11:56:26.763Z,10.47
2017-08-29T11:58:54.267Z,9.50
2017-08-29T12:01:21.734Z,14.30
2017-08-29T12:03:49.235Z,10.10
2017-08-29T12:06:16.792Z,13.57
2017-08-29T12:08:45.254Z,9.90
2017-08-29T12:11:12.746Z,9.13
2017-08-29T12:13:40.271Z,10.20
2017-08-29T12:16:08.433Z,10.07
2017-08-29T12:18:35.939Z,9.77
2017-08-29T12:21:03.435Z,9.10
2017-08-29T12:23:30.903Z,9.87
2017-08-29T12:25:58.399Z,9.33
2017-08-29T12:28:25.872Z,10.90
2017-08-29T12:30:53.364Z,11.83
2017-08-29T12:33:20.866Z,9.53
2017-08-29T12:35:48.331Z,9.20
2017-08-29T12:38:15.819Z,10.47
2017-08-29T12:40:43.284Z,10.40
2017-08-29T12:43:10.984Z,10.03
2017-08-29T12:45:38.451Z,10.03
2017-08-29T12:48:06.584Z,9.30
2017-08-29T12:50:34.070Z,9.83
2017-08-29T12:53:02.336Z,9.97
2017-08-29T12:55:29.855Z,9.20
2017-08-29T12:57:57.312Z,9.50
2017-08-29T13:00:24.818Z,8.70
2017-08-29T13:02:52.324Z,12.13
2017-08-29T13:05:20.640Z,11.90
2017-08-29T13:07:48.256Z,9.90
2017-08-29T13:10:15.756Z,9.47
2017-08-29T13:12:43.296Z,10.71
2017-08-29T13:15:10.965Z,9.20
2017-08-29T13:17:38.445Z,10.17
2017-08-29T13:20:05.964Z,9.97
2017-08-29T13:22:33.469Z,9.70
2017-08-29T13:25:01.036Z,9.37
2017-08-29T13:27:28.561Z,9.10
2017-08-29T13:29:56.646Z,9.60
2017-08-29T13:32:24.167Z,8.93
2017-08-29T13:34:51.667Z,9.40
2017-08-29T13:37:19.175Z,9.57
2017-08-29T13:39:46.647Z,9.30
2017-08-29T13:42:14.134Z,10.48
2017-08-29T13:44:41.616Z,10.63
2017-08-29T13:47:09.111Z,9.30
2017-08-29T13:49:36.630Z,10.10
2017-08-29T13:52:04.085Z,9.50
2017-08-29T13:54:31.622Z,11.20
2017-08-29T13:56:59.940Z,8.87
2017-08-29T13:59:27.470Z,9.47
2017-08-29T14:01:55.668Z,8.97
2017-08-29T14:04:23.152Z,8.63
2017-08-29T14:06:50.642Z,9.07
2017-08-29T14:09:18.142Z,8.50
2017-08-29T14:11:45.613Z,9.40
2017-08-29T14:14:13.161Z,8.90
2017-08-29T14:16:40.662Z,11.20
2017-08-29T14:19:08.109Z,9.17
2017-08-29T14:21:35.624Z,8.20
2017-08-29T14:24:03.838Z,8.73
2017-08-29T14:26:31.360Z,9.03
2017-08-29T14:28:58.864Z,9.60
2017-08-29T14:31:28.341Z,9.27
2017-08-29T14:33:55.798Z,8.90
2017-08-29T14:36:23.702Z,8.57
2017-08-29T14:38:51.281Z,9.20
2017-08-29T14:41:18.801Z,8.30
2017-08-29T14:43:46.292Z,9.00
2017-08-29T14:46:13.825Z,8.23
2017-08-29T14:48:53.049Z,9.40
2017-08-29T14:51:20.533Z,10.52
2017-08-29T14:53:48.027Z,9.00
2017-08-29T14:56:15.491Z,9.80
2017-08-29T14:58:42.945Z,9.60
2017-08-29T15:01:10.440Z,8.87
2017-08-29T15:03:37.942Z,8.80
2017-08-29T15:06:05.441Z,9.10
2017-08-29T15:08:32.935Z,8.20
2017-08-29T15:11:00.506Z,9.13
2017-08-29T15:13:27.986Z,8.37
2017-08-29T15:15:55.469Z,8.20
2017-08-29T15:18:22.989Z,9.10
2017-08-29T15:20:50.437Z,7.67
2017-08-29T15:23:17.934Z,8.68
2017-08-29T15:25:45.405Z,8.10
2017-08-29T15:28:12.910Z,7.90
2017-08-29T15:30:40.386Z,7.43
2017-08-29T15:33:07.888Z,8.80
2017-08-29T15:35:35.362Z,7.43
2017-08-29T15:38:03.068Z,8.50
2017-08-29T15:40:30.521Z,8.23
2017-08-29T15:42:58.007Z,8.00
2017-08-29T15:45:25.492Z,8.00
2017-08-29T15:47:53.187Z,8.70
2017-08-29T15:50:20.718Z,7.95
2017-08-29T15:52:48.204Z,8.23
2017-08-29T15:55:15.690Z,8.10
2017-08-29T15:57:43.154Z,8.43
2017-08-29T16:00:10.679Z,8.37
2017-08-29T16:02:38.147Z,9.03
2017-08-29T16:05:05.641Z,8.53
2017-08-29T16:07:33.161Z,8.40
2017-08-29T16:10:00.643Z,7.93
2017-08-29T16:12:28.129Z,8.13
2017-08-29T16:14:57.712Z,8.03
2017-08-29T16:17:25.186Z,7.67
2017-08-29T16:19:52.779Z,8.13
2017-08-29T16:22:20.283Z,8.00
2017-08-29T16:24:47.738Z,7.70
2017-08-29T16:27:15.242Z,8.02
2017-08-29T16:29:42.736Z,8.17
2017-08-29T16:32:10.259Z,8.18
2017-08-29T16:34:37.735Z,8.50
2017-08-29T16:37:05.223Z,8.40
2017-08-29T16:39:32.695Z,7.90
2017-08-29T16:42:00.216Z,7.37
2017-08-29T16:44:27.700Z,8.17
2017-08-29T16:46:55.302Z,8.30
2017-08-29T16:49:22.828Z,7.97
2017-08-29T16:51:51.351Z,8.07
2017-08-29T16:54:18.865Z,11.70
2017-08-29T16:56:46.363Z,8.30
2017-08-29T16:59:13.894Z,8.20
2017-08-29T17:01:41.374Z,8.90
2017-08-29T17:04:08.861Z,7.97
2017-08-29T17:06:36.359Z,10.10
2017-08-29T17:09:05.997Z,12.00
2017-08-29T17:11:33.459Z,9.43
2017-08-29T17:14:13.207Z,10.50
2017-08-29T17:16:40.703Z,9.37
2017-08-29T17:19:08.208Z,9.07
2017-08-29T17:21:35.702Z,9.30
2017-08-29T17:24:03.208Z,9.30
2017-08-29T17:26:31.028Z,9.53
2017-08-29T17:28:58.510Z,9.60
2017-08-29T17:31:26.060Z,9.53
2017-08-29T17:33:53.608Z,10.33
2017-08-29T17:36:21.127Z,9.70
2017-08-29T17:38:48.623Z,10.27
2017-08-29T17:41:17.353Z,9.75
2017-08-29T17:43:44.866Z,11.80
2017-08-29T17:46:12.365Z,9.83
2017-08-29T17:48:39.873Z,9.90
2017-08-29T17:51:07.341Z,9.90
2017-08-29T17:53:34.900Z,10.13
2017-08-29T17:56:02.394Z,10.63
2017-08-29T17:58:29.898Z,10.40
2017-08-29T18:00:57.424Z,10.40
2017-08-29T18:03:24.914Z,10.90
2017-08-29T18:05:52.388Z,10.83
2017-08-29T18:08:19.878Z,11.35
2017-08-29T18:10:47.375Z,12.63
2017-08-29T18:13:14.855Z,11.03
2017-08-29T18:15:42.378Z,11.13
2017-08-29T18:18:09.879Z,11.60
2017-08-29T18:20:41.089Z,11.27
2017-08-29T18:23:08.606Z,11.63
2017-08-29T18:25:36.133Z,12.17
2017-08-29T18:28:03.667Z,13.87
2017-08-29T18:30:31.182Z,12.10
2017-08-29T18:32:58.669Z,5.70
2017-08-29T18:35:26.153Z,8.83
2017-08-29T18:37:53.641Z,10.13
2017-08-29T18:40:21.132Z,10.50
2017-08-29T18:42:48.644Z,10.87
2017-08-29T18:45:16.162Z,11.37
2017-08-29T18:47:43.650Z,11.40
2017-08-29T18:50:11.171Z,11.83
2017-08-29T18:52:38.694Z,10.77
2017-08-29T18:55:06.237Z,11.97
2017-08-29T18:57:33.730Z,11.40
2017-08-29T19:00:01.247Z,11.53
2017-08-29T19:02:28.734Z,11.47
2017-08-29T19:04:56.293Z,11.97
2017-08-29T19:07:23.812Z,10.98
2017-08-29T19:09:51.682Z,10.80
2017-08-29T19:12:19.182Z,11.48
2017-08-29T19:14:46.719Z,12.20
2017-08-29T19:17:14.263Z,10.90
2017-08-29T19:19:41.775Z,11.73
2017-08-29T19:22:09.295Z,12.27
2017-08-29T19:24:36.804Z,12.23
2017-08-29T19:27:04.317Z,11.60
2017-08-29T19:29:31.836Z,11.90
2017-08-29T19:31:59.374Z,12.50
2017-08-29T19:34:26.891Z,12.60
2017-08-29T19:36:54.458Z,12.53
2017-08-29T19:39:21.997Z,13.40
2017-08-29T19:41:49.503Z,12.33
2017-08-29T19:44:17.027Z,12.60
2017-08-29T19:46:44.559Z,12.63
2017-08-29T19:49:12.115Z,13.62
2017-08-29T19:51:39.638Z,12.67
2017-08-29T19:54:07.213Z,12.17
2017-08-29T19:56:34.795Z,12.87
2017-08-29T19:59:02.322Z,11.73
2017-08-29T20:01:29.827Z,12.73
2017-08-29T20:03:57.329Z,12.43
2017-08-29T20:06:24.888Z,12.83
2017-08-29T20:08:52.421Z,12.97
2017-08-29T20:11:19.978Z,13.35
2017-08-29T20:13:48.396Z,13.43
2017-08-29T20:16:15.936Z,13.43
2017-08-29T20:18:43.412Z,12.68
2017-08-29T20:21:10.906Z,14.23
2017-08-29T20:23:38.413Z,12.13
2017-08-29T20:26:05.946Z,13.80
2017-08-29T20:28:33.475Z,13.85
2017-08-29T20:31:01.002Z,13.30
2017-08-29T20:33:28.497Z,13.07
2017-08-29T20:35:56.007Z,34.00
2017-08-29T20:38:23.506Z,13.70
2017-08-29T20:40:51.012Z,13.50
2017-08-29T20:43:18.530Z,13.60
2017-08-29T20:45:45.996Z,12.77
2017-08-29T20:48:13.493Z,14.40
2017-08-29T20:50:40.967Z,13.60
2017-08-29T20:53:08.476Z,14.05
2017-08-29T20:55:35.963Z,13.03
2017-08-29T20:58:03.461Z,13.00
2017-08-29T21:00:30.935Z,13.20
2017-08-29T21:02:58.438Z,13.77
2017-08-29T21:05:25.926Z,14.37
2017-08-29T21:07:54.040Z,13.73
2017-08-29T21:10:21.535Z,14.07
2017-08-29T21:12:49.040Z,13.40
2017-08-29T21:15:16.561Z,13.50
2017-08-29T21:17:44.046Z,14.23
2017-08-29T21:20:11.552Z,13.10
2017-08-29T21:22:39.078Z,13.40
2017-08-29T21:25:06.570Z,13.47
2017-08-29T21:27:34.067Z,14.03
2017-08-29T21:30:01.586Z,13.67
2017-08-29T21:32:29.079Z,14.10
2017-08-29T21:34:56.595Z,13.93
2017-08-29T21:37:24.150Z,15.07
2017-08-29T21:39:51.638Z,13.93
2017-08-29T21:42:19.131Z,14.40
2017-08-29T21:44:46.640Z,14.33
2017-08-29T21:47:14.155Z,13.73
2017-08-29T21:49:41.629Z,14.20
2017-08-29T21:52:09.148Z,14.10
2017-08-29T21:54:36.629Z,14.70
2017-08-29T21:57:04.302Z,15.10
2017-08-29T21:59:31.756Z,15.43
2017-08-29T22:01:59.287Z,15.13
2017-08-29T22:04:26.767Z,14.50
2017-08-29T22:06:54.259Z,15.10
2017-08-29T22:09:21.792Z,14.73
2017-08-29T22:11:49.270Z,15.80
2017-08-29T22:14:16.774Z,13.90
2017-08-29T22:16:44.238Z,14.30
2017-08-29T22:19:11.761Z,14.32
2017-08-29T22:21:39.255Z,14.90
2017-08-29T22:24:06.753Z,13.47
2017-08-29T22:26:34.210Z,14.38
2017-08-29T22:29:01.716Z,14.40
2017-08-29T22:31:29.201Z,14.60
2017-08-29T22:33:56.710Z,15.50
2017-08-29T22:36:24.285Z,14.97
2017-08-29T22:38:51.811Z,14.73
2017-08-29T22:41:19.272Z,14.10
2017-08-29T22:43:46.782Z,13.70
2017-08-29T22:46:14.252Z,14.68
2017-08-29T22:48:41.720Z,15.18
2017-08-29T22:51:09.225Z,14.68
2017-08-29T22:53:36.737Z,15.17
2017-08-29T22:56:04.380Z,14.67
2017-08-29T22:58:31.867Z,14.90
2017-08-29T23:00:59.325Z,14.30
2017-08-29T23:03:26.838Z,15.50
2017-08-29T23:05:54.308Z,15.40
2017-08-29T23:08:21.814Z,15.48
2017-08-29T23:10:49.303Z,16.00
2017-08-29T23:13:16.799Z,14.90
2017-08-29T23:15:44.298Z,15.73
2017-08-29T23:18:11.787Z,15.15
2017-08-29T23:20:39.281Z,15.40
2017-08-29T23:23:06.745Z,15.40
2017-08-29T23:25:34.235Z,14.70
2017-08-29T23:28:01.755Z,14.77
2017-08-29T23:30:29.214Z,15.93
2017-08-29T23:32:56.709Z,14.00
2017-08-29T23:35:24.174Z,14.63
2017-08-29T23:37:51.761Z,15.70
2017-08-29T23:40:19.225Z,16.02
2017-08-29T23:42:46.689Z,15.23
2017-08-29T23:45:14.189Z,15.80
2017-08-29T23:47:41.668Z,15.17
2017-08-29T23:50:09.160Z,15.40
2017-08-29T23:52:36.630Z,15.50
2017-08-29T23:55:04.905Z,16.20
2017-08-29T23:57:32.380Z,16.20
2017-08-29T23:59:59.868Z,15.50
